createdAt,value
2024-01-18T00:01:03.467Z,98545.31
2024-01-18T00:03:31.888Z,98525.56
2024-01-18T00:06:04.411Z,98552.13
2024-01-18T00:08:32.777Z,98548.25
2024-01-18T00:11:06.431Z,98554.97
2024-01-18T00:13:34.750Z,98556.66
2024-01-18T00:16:03.138Z,98566.97
2024-01-18T00:18:31.734Z,98564.50
2024-01-18T00:21:01.854Z,98572.25
2024-01-18T00:23:30.713Z,98580.75
2024-01-18T00:25:59.173Z,98581.56
2024-01-18T00:28:27.665Z,98578.38
2024-01-18T00:30:56.027Z,98598.88
2024-01-18T00:33:24.792Z,98601.50
2024-01-18T00:35:53.237Z,98601.47
2024-01-18T00:38:23.129Z,98612.69
2024-01-18T00:40:51.489Z,98603.94
2024-01-18T00:43:19.885Z,98607.34
2024-01-18T00:45:48.483Z,98609.03
2024-01-18T00:48:20.138Z,98619.50
2024-01-18T00:50:51.530Z,98625.25
2024-01-18T00:53:20.848Z,98633.88
2024-01-18T00:55:51.555Z,98638.94
2024-01-18T00:58:21.418Z,98642.28
2024-01-18T01:00:50.115Z,98640.47
2024-01-18T01:03:18.628Z,98653.47
2024-01-18T01:05:47.073Z,98646.50
2024-01-18T01:08:15.612Z,98661.94
2024-01-18T01:10:46.676Z,98653.41
2024-01-18T01:13:16.600Z,98667.16
2024-01-18T01:15:44.973Z,98672.28
2024-01-18T01:18:13.496Z,98674.03
2024-01-18T01:20:41.875Z,98686.81
2024-01-18T01:23:10.247Z,98683.41
2024-01-18T01:25:38.568Z,98695.56
2024-01-18T01:28:07.718Z,98695.34
2024-01-18T01:30:37.719Z,98683.00
2024-01-18T01:33:06.550Z,98696.59
2024-01-18T01:35:35.105Z,98695.06
2024-01-18T01:38:04.352Z,98699.22
2024-01-18T01:40:32.715Z,98715.13
2024-01-18T01:43:01.095Z,98706.84
2024-01-18T01:45:29.536Z,98722.03
2024-01-18T01:48:02.102Z,98721.06
2024-01-18T01:50:30.687Z,98736.56
2024-01-18T01:52:59.092Z,98743.25
2024-01-18T01:55:27.574Z,98754.47
2024-01-18T01:57:56.230Z,98766.41
2024-01-18T02:00:26.002Z,98775.22
2024-01-18T02:02:55.190Z,98774.41
2024-01-18T02:05:26.503Z,98773.75
2024-01-18T02:07:55.242Z,98777.28
2024-01-18T02:10:24.477Z,98783.34
2024-01-18T02:12:53.692Z,98796.94
2024-01-18T02:15:22.192Z,98791.75
2024-01-18T02:17:50.630Z,98807.22
2024-01-18T02:20:19.176Z,98814.88
2024-01-18T02:22:50.003Z,98822.50
2024-01-18T02:25:26.351Z,98827.63
2024-01-18T02:27:56.809Z,98826.03
2024-01-18T02:30:25.362Z,98838.75
2024-01-18T02:32:55.737Z,98852.34
2024-01-18T02:35:24.505Z,98847.22
2024-01-18T02:37:52.990Z,98858.34
2024-01-18T02:40:21.790Z,98851.59
2024-01-18T02:42:52.546Z,98843.03
2024-01-18T02:45:21.143Z,98855.84
2024-01-18T02:47:49.535Z,98862.63
2024-01-18T02:50:17.981Z,98873.75
2024-01-18T02:52:46.272Z,98885.00
2024-01-18T02:55:14.770Z,98881.41
2024-01-18T02:57:43.239Z,98884.81
2024-01-18T03:00:14.310Z,98890.72
2024-01-18T03:02:42.661Z,98896.16
2024-01-18T03:05:11.183Z,98905.38
2024-01-18T03:07:39.677Z,98909.97
2024-01-18T03:10:09.806Z,98903.94
2024-01-18T03:12:39.014Z,98912.53
2024-01-18T03:15:10.772Z,98900.44
2024-01-18T03:17:40.683Z,98909.00
2024-01-18T03:20:10.446Z,98910.25
2024-01-18T03:25:40.839Z,98927.59
2024-01-18T03:28:09.172Z,98924.44
2024-01-18T03:30:37.409Z,98935.66
2024-01-18T03:33:07.572Z,98948.38
2024-01-18T03:35:35.847Z,98948.50
2024-01-18T03:38:04.286Z,98951.75
2024-01-18T03:40:32.422Z,98950.94
2024-01-18T03:43:00.575Z,98954.38
2024-01-18T03:45:28.777Z,98963.59
2024-01-18T03:47:57.458Z,98960.97
2024-01-18T03:50:27.045Z,98962.75
2024-01-18T03:52:55.361Z,98972.03
2024-01-18T03:55:23.869Z,98967.78
2024-01-18T03:57:52.108Z,98970.41
2024-01-18T04:00:20.778Z,98988.44
2024-01-18T04:02:49.915Z,98991.81
2024-01-18T04:05:18.136Z,99001.34
2024-01-18T04:07:47.822Z,99002.38
2024-01-18T04:10:16.004Z,99014.44
2024-01-18T04:12:45.290Z,99022.84
2024-01-18T04:15:13.789Z,99024.69
2024-01-18T04:17:42.247Z,99020.41
2024-01-18T04:20:13.560Z,99033.28
2024-01-18T04:22:41.866Z,99034.97
2024-01-18T04:25:11.870Z,99035.94
2024-01-18T04:27:40.210Z,99050.38
2024-01-18T04:30:10.075Z,99059.19
2024-01-18T04:32:38.386Z,99067.75
2024-01-18T04:35:07.311Z,99074.06
2024-01-18T04:37:35.649Z,99075.81
2024-01-18T04:40:04.045Z,99080.94
2024-01-18T04:42:33.832Z,99085.31
2024-01-18T04:45:02.454Z,99094.00
2024-01-18T04:47:30.943Z,99100.94
2024-01-18T04:49:59.626Z,99098.50
2024-01-18T04:52:27.914Z,99103.81
2024-01-18T04:54:57.326Z,99116.84
2024-01-18T04:57:25.618Z,99124.00
2024-01-18T04:59:55.207Z,99118.97
2024-01-18T05:02:23.427Z,99130.09
2024-01-18T05:04:51.694Z,99138.97
2024-01-18T05:07:20.110Z,99155.34
2024-01-18T05:09:48.440Z,99159.81
2024-01-18T05:12:16.681Z,99168.50
2024-01-18T05:14:44.927Z,99176.63
2024-01-18T05:17:14.710Z,99181.66
2024-01-18T05:19:42.945Z,99189.69
2024-01-18T05:22:12.343Z,99197.31
2024-01-18T05:24:43.712Z,99193.34
2024-01-18T05:27:11.978Z,99200.25
2024-01-18T05:29:40.244Z,99201.19
2024-01-18T05:32:08.443Z,99216.56
2024-01-18T05:34:38.157Z,99226.06
2024-01-18T05:37:06.552Z,99227.03
2024-01-18T05:39:34.790Z,99236.59
2024-01-18T05:42:03.526Z,99240.97
2024-01-18T05:44:32.569Z,99249.59
2024-01-18T05:47:00.751Z,99259.00
2024-01-18T05:49:29.158Z,99261.47
2024-01-18T05:51:58.738Z,99270.88
2024-01-18T05:54:27.039Z,99271.72
2024-01-18T05:56:55.252Z,99271.03
2024-01-18T05:59:23.492Z,99286.41
2024-01-18T06:01:51.945Z,99283.84
2024-01-18T06:04:20.151Z,99295.72
2024-01-18T06:06:48.431Z,99299.97
2024-01-18T06:09:18.362Z,99305.22
2024-01-18T06:11:47.014Z,99312.06
2024-01-18T06:14:16.692Z,99314.81
2024-01-18T06:16:44.867Z,99319.91
2024-01-18T06:19:13.560Z,99338.69
2024-01-18T06:21:42.474Z,99338.69
2024-01-18T06:24:10.085Z,99341.28
2024-01-18T06:26:39.691Z,99355.03
2024-01-18T06:29:08.461Z,99362.78
2024-01-18T06:31:36.626Z,99367.16
2024-01-18T06:34:06.882Z,99366.47
2024-01-18T06:36:35.263Z,99380.25
2024-01-18T06:39:03.658Z,99391.34
2024-01-18T06:41:32.044Z,99389.81
2024-01-18T06:44:07.046Z,99391.53
2024-01-18T06:46:35.790Z,99389.13
2024-01-18T06:49:04.218Z,99408.00
2024-01-18T06:51:32.574Z,99403.81
2024-01-18T06:54:01.016Z,99420.88
2024-01-18T06:56:29.232Z,99425.13
2024-01-18T06:58:57.690Z,99426.94
2024-01-18T07:01:27.401Z,99426.94
2024-01-18T07:03:55.973Z,99437.25
2024-01-18T07:06:24.366Z,99439.09
2024-01-18T07:08:52.700Z,99443.34
2024-01-18T07:11:20.862Z,99460.47
2024-01-18T07:13:49.042Z,99461.41
2024-01-18T07:16:17.308Z,99475.94
2024-01-18T07:18:47.857Z,99469.16
2024-01-18T07:21:17.047Z,99479.41
2024-01-18T07:23:45.145Z,99486.38
2024-01-18T07:26:13.411Z,99494.00
2024-01-18T07:28:41.619Z,99494.97
2024-01-18T07:31:10.006Z,99499.31
2024-01-18T07:33:38.717Z,99508.75
2024-01-18T07:36:09.460Z,99508.75
2024-01-18T07:38:37.613Z,99508.81
2024-01-18T07:41:06.021Z,99516.56
2024-01-18T07:43:34.282Z,99531.13
2024-01-18T07:46:06.123Z,99523.53
2024-01-18T07:48:34.531Z,99526.13
2024-01-18T07:51:02.786Z,99538.16
2024-01-18T07:53:32.303Z,99552.66
2024-01-18T07:56:00.460Z,99549.34
2024-01-18T07:58:28.556Z,99557.94
2024-01-18T08:00:56.834Z,99559.69
2024-01-18T08:03:25.205Z,99569.09
2024-01-18T08:05:53.465Z,99579.34
2024-01-18T08:08:21.587Z,99585.31
2024-01-18T08:10:51.291Z,99604.03
2024-01-18T08:13:19.335Z,99610.84
2024-01-18T08:15:47.851Z,99614.25
2024-01-18T08:18:16.437Z,99611.69
2024-01-18T08:20:44.974Z,99626.19
2024-01-18T08:23:13.580Z,99630.44
2024-01-18T08:25:41.728Z,99632.09
2024-01-18T08:28:14.605Z,99648.25
2024-01-18T08:30:42.921Z,99648.19
2024-01-18T08:33:11.161Z,99648.09
2024-01-18T08:35:39.387Z,99652.28
2024-01-18T08:38:07.583Z,99663.28
2024-01-18T08:40:36.932Z,99667.47
2024-01-18T08:43:05.207Z,99677.66
2024-01-18T08:45:34.921Z,99675.78
2024-01-18T08:48:03.154Z,99694.31
2024-01-18T08:50:31.352Z,99698.22
2024-01-18T08:52:59.484Z,99709.78
2024-01-18T08:55:27.656Z,99711.94
2024-01-18T08:57:56.372Z,99719.09
2024-01-18T09:00:29.110Z,99735.69
2024-01-18T09:02:58.998Z,99739.47
2024-01-18T09:05:27.361Z,99742.41
2024-01-18T09:07:56.219Z,99749.53
2024-01-18T09:10:27.528Z,99748.94
2024-01-18T09:16:28.454Z,99755.28
2024-01-18T09:19:10.710Z,99758.47
2024-01-18T09:21:43.810Z,99769.03
2024-01-18T09:24:12.717Z,99767.97
2024-01-18T09:26:41.137Z,99769.69
2024-01-18T09:29:09.366Z,99781.97
2024-01-18T09:31:42.028Z,99781.19
2024-01-18T09:34:13.028Z,99797.72
2024-01-18T09:36:41.782Z,99799.25
2024-01-18T09:39:17.392Z,99790.94
2024-01-18T09:41:51.408Z,99796.31
2024-01-18T09:44:26.089Z,99806.75
2024-01-18T09:46:55.708Z,99821.09
2024-01-18T09:49:26.808Z,99823.81
2024-01-18T09:51:57.082Z,99842.00
2024-01-18T09:54:25.389Z,99832.94
2024-01-18T09:56:55.832Z,99838.63
2024-01-18T09:59:26.100Z,99847.66
2024-01-18T10:01:54.911Z,99853.69
2024-01-18T10:04:23.204Z,99867.88
2024-01-18T10:06:53.086Z,99873.06
2024-01-18T10:09:21.565Z,99873.41
2024-01-18T10:11:49.884Z,99878.09
2024-01-18T10:14:18.111Z,99886.47
2024-01-18T10:16:46.359Z,99895.00
2024-01-18T10:19:16.428Z,99905.13
2024-01-18T10:21:46.453Z,99913.69
2024-01-18T10:24:18.941Z,99918.56
2024-01-18T10:26:48.610Z,99926.38
2024-01-18T10:29:16.896Z,99946.19
2024-01-18T10:31:45.177Z,99947.72
2024-01-18T10:34:15.383Z,99965.13
2024-01-18T10:36:44.417Z,99971.63
2024-01-18T10:39:21.434Z,99979.59
2024-01-18T10:41:50.297Z,99981.31
2024-01-18T10:44:18.901Z,99983.53
2024-01-18T10:46:48.866Z,99992.25
2024-01-18T10:49:17.438Z,99989.19
2024-01-18T10:51:46.084Z,99998.75
2024-01-18T10:54:25.633Z,100014.41
2024-01-18T10:57:01.261Z,100025.84
2024-01-18T10:59:31.405Z,100030.31
2024-01-18T11:02:01.353Z,100039.22
2024-01-18T11:04:32.049Z,100041.81
2024-01-18T11:07:02.961Z,100037.13
2024-01-18T11:09:36.031Z,100044.94
2024-01-18T11:12:08.587Z,100042.16
2024-01-18T11:14:37.351Z,100041.28
2024-01-18T11:17:13.512Z,100055.97
2024-01-18T11:19:43.289Z,100064.03
2024-01-18T11:22:13.028Z,100073.69
2024-01-18T11:24:43.975Z,100074.75
2024-01-18T11:27:22.935Z,100074.81
2024-01-18T11:29:52.163Z,100079.19
2024-01-18T11:32:22.035Z,100081.78
2024-01-18T11:34:51.616Z,100083.56
2024-01-18T11:37:21.621Z,100083.59
2024-01-18T11:39:56.840Z,100091.31
2024-01-18T11:42:29.775Z,100097.47
2024-01-18T11:44:59.451Z,100099.16
2024-01-18T11:47:33.957Z,100099.22
2024-01-18T11:50:06.676Z,100100.94
2024-01-18T11:52:38.628Z,100106.94
2024-01-18T11:55:08.099Z,100100.09
2024-01-18T11:57:38.566Z,100114.69
2024-01-18T12:00:08.115Z,100109.53
2024-01-18T12:02:43.895Z,100115.38
2024-01-18T12:05:12.234Z,100115.53
2024-01-18T12:07:41.134Z,100129.34
2024-01-18T12:10:10.377Z,100124.19
2024-01-18T12:12:45.184Z,100131.16
2024-01-18T12:15:19.369Z,100135.38
2024-01-18T12:17:50.439Z,100133.84
2024-01-18T12:20:21.007Z,100140.03
2024-01-18T12:22:49.695Z,100141.66
2024-01-18T12:25:18.164Z,100132.19
2024-01-18T12:27:47.974Z,100132.13
2024-01-18T12:30:16.809Z,100142.41
2024-01-18T12:32:45.316Z,100150.91
2024-01-18T12:35:14.100Z,100159.47
2024-01-18T12:37:42.541Z,100156.06
2024-01-18T12:40:14.129Z,100156.13
2024-01-18T12:42:43.216Z,100166.47
2024-01-18T12:45:14.481Z,100161.97
2024-01-18T12:47:43.111Z,100174.84
2024-01-18T12:50:13.082Z,100174.84
2024-01-18T12:52:42.804Z,100184.16
2024-01-18T12:55:11.709Z,100191.03
2024-01-18T12:57:43.169Z,100166.97
2024-01-18T13:00:13.226Z,100175.56
2024-01-18T13:02:43.209Z,100175.56
2024-01-18T13:05:16.523Z,100185.72
2024-01-18T13:07:45.192Z,100187.31
2024-01-18T13:10:14.581Z,100189.88
2024-01-18T13:12:44.637Z,100202.72
2024-01-18T13:15:13.100Z,100206.13
2024-01-18T13:17:44.246Z,100200.22
2024-01-18T13:20:13.784Z,100211.31
2024-01-18T13:22:43.471Z,100209.50
2024-01-18T13:25:13.102Z,100221.50
2024-01-18T13:27:43.063Z,100214.53
2024-01-18T13:30:13.549Z,100214.38
2024-01-18T13:32:43.381Z,100222.81
2024-01-18T13:35:11.727Z,100222.78
2024-01-18T13:37:39.927Z,100225.59
2024-01-18T13:40:09.886Z,100229.34
2024-01-18T13:42:38.155Z,100234.66
2024-01-18T13:45:08.275Z,100241.50
2024-01-18T13:47:37.305Z,100245.59
2024-01-18T13:50:08.107Z,100235.16
2024-01-18T13:52:37.084Z,100254.75
2024-01-18T13:55:06.173Z,100251.06
2024-01-18T13:57:34.693Z,100260.53
2024-01-18T14:00:02.960Z,100273.44
2024-01-18T14:02:40.726Z,100273.91
2024-01-18T14:05:10.827Z,100270.09
2024-01-18T14:07:39.211Z,100278.94
2024-01-18T14:10:09.237Z,100275.44
2024-01-18T14:12:37.496Z,100264.03
2024-01-18T14:15:06.665Z,100284.56
2024-01-18T14:17:35.260Z,100288.69
2024-01-18T14:20:03.731Z,100289.31
2024-01-18T14:22:33.500Z,100284.06
2024-01-18T14:25:01.906Z,100301.16
2024-01-18T14:27:30.186Z,100295.84
2024-01-18T14:29:58.525Z,100298.34
2024-01-18T14:32:26.743Z,100297.56
2024-01-18T14:34:55.593Z,100308.84
2024-01-18T14:37:23.908Z,100307.00
2024-01-18T14:39:53.733Z,100313.81
2024-01-18T14:42:22.068Z,100315.47
2024-01-18T14:44:50.357Z,100308.63
2024-01-18T14:47:25.279Z,100317.97
2024-01-18T14:49:54.146Z,100329.03
2024-01-18T14:52:23.462Z,100334.88
2024-01-18T14:54:54.918Z,100342.50
2024-01-18T14:57:24.992Z,100338.19
2024-01-18T14:59:53.786Z,100333.16
2024-01-18T15:02:22.736Z,100345.19
2024-01-18T15:04:52.406Z,100346.91
2024-01-18T15:07:20.719Z,100350.28
2024-01-18T15:09:48.998Z,100356.31
2024-01-18T15:12:19.339Z,100359.78
2024-01-18T15:14:48.102Z,100354.75
2024-01-18T15:17:16.621Z,100360.75
2024-01-18T15:19:45.094Z,100377.16
2024-01-18T15:22:13.421Z,100377.97
2024-01-18T15:24:41.689Z,100389.28
2024-01-18T15:27:10.044Z,100394.53
2024-01-18T15:29:42.019Z,100399.72
2024-01-18T15:32:10.699Z,100396.22
2024-01-18T15:34:43.116Z,100406.63
2024-01-18T15:37:11.904Z,100400.75
2024-01-18T15:39:40.192Z,100401.78
2024-01-18T15:42:08.622Z,100419.97
2024-01-18T15:44:37.118Z,100412.31
2024-01-18T15:47:08.776Z,100415.84
2024-01-18T15:49:37.066Z,100431.53
2024-01-18T15:52:06.125Z,100446.31
2024-01-18T15:54:34.467Z,100449.88
2024-01-18T15:57:02.697Z,100461.91
2024-01-18T15:59:31.209Z,100471.06
2024-01-18T16:01:59.748Z,100490.66
2024-01-18T16:04:30.335Z,100487.59
2024-01-18T16:06:58.775Z,100488.84
2024-01-18T16:09:27.506Z,100499.25
2024-01-18T16:11:55.806Z,100498.44
2024-01-18T16:14:24.615Z,100501.91
2024-01-18T16:16:53.214Z,100512.28
2024-01-18T16:19:21.635Z,100513.28
2024-01-18T16:21:51.379Z,100515.06
2024-01-18T16:24:19.912Z,100520.38
2024-01-18T16:26:48.376Z,100521.38
2024-01-18T16:29:17.561Z,100526.56
2024-01-18T16:31:45.845Z,100520.59
2024-01-18T16:34:14.165Z,100532.69
2024-01-18T16:36:42.490Z,100528.53
2024-01-18T16:39:12.151Z,100537.19
2024-01-18T16:41:40.387Z,100538.16
2024-01-18T16:44:08.841Z,100543.34
2024-01-18T16:46:37.930Z,100546.00
2024-01-18T16:49:06.978Z,100547.81
2024-01-18T16:51:35.895Z,100558.97
2024-01-18T16:54:05.458Z,100568.44
2024-01-18T16:56:35.154Z,100568.47
2024-01-18T16:59:03.305Z,100571.91
2024-01-18T17:01:32.214Z,100572.81
2024-01-18T17:04:01.629Z,100582.28
2024-01-18T17:06:30.116Z,100579.78
2024-01-18T17:08:59.526Z,100585.84
2024-01-18T17:11:28.448Z,100590.13
2024-01-18T17:13:58.275Z,100597.88
2024-01-18T17:16:26.489Z,100597.88
2024-01-18T17:18:56.101Z,100598.75
2024-01-18T17:21:24.555Z,100608.16
2024-01-18T17:23:52.846Z,100618.38
2024-01-18T17:26:21.381Z,100625.16
2024-01-18T17:28:49.908Z,100643.94
2024-01-18T17:31:19.555Z,100662.69
2024-01-18T17:33:48.972Z,100664.41
2024-01-18T17:36:17.271Z,100671.25
2024-01-18T17:38:45.512Z,100666.09
2024-01-18T17:41:14.677Z,100666.91
2024-01-18T17:43:42.937Z,100675.44
2024-01-18T17:46:11.339Z,100672.00
2024-01-18T17:48:42.574Z,100671.13
2024-01-18T17:51:11.449Z,100660.00
2024-01-18T17:53:40.188Z,100659.13
2024-01-18T17:56:08.575Z,100659.09
2024-01-18T17:58:36.726Z,100667.69
2024-01-18T18:01:07.682Z,100657.41
2024-01-18T18:03:37.936Z,100657.47
2024-01-18T18:06:08.996Z,100661.81
2024-01-18T18:08:37.629Z,100674.66
2024-01-18T18:11:06.769Z,100676.41
2024-01-18T18:13:35.554Z,100683.28
2024-01-18T18:16:05.575Z,100682.47
2024-01-18T18:18:35.681Z,100689.28
2024-01-18T18:21:05.493Z,100684.19
2024-01-18T18:23:35.122Z,100691.03
2024-01-18T18:26:08.163Z,100698.72
2024-01-18T18:28:37.518Z,100694.50
2024-01-18T18:31:06.159Z,100704.75
2024-01-18T18:33:34.408Z,100713.28
2024-01-18T18:36:03.992Z,100720.13
2024-01-18T18:38:33.712Z,100732.91
2024-01-18T18:41:04.681Z,100731.25
2024-01-18T18:43:33.209Z,100730.38
2024-01-18T18:46:01.662Z,100734.66
2024-01-18T18:48:31.030Z,100741.44
2024-01-18T18:51:00.388Z,100750.00
2024-01-18T18:53:28.770Z,100755.09
2024-01-18T18:55:56.978Z,100748.28
2024-01-18T18:58:26.617Z,100740.63
2024-01-18T19:00:55.089Z,100745.75
2024-01-18T19:03:23.841Z,100758.50
2024-01-18T19:05:53.200Z,100755.97
2024-01-18T19:08:21.843Z,100755.06
2024-01-18T19:10:51.648Z,100758.50
2024-01-18T19:13:20.978Z,100768.72
2024-01-18T19:15:50.839Z,100778.94
2024-01-18T19:18:19.282Z,100778.06
2024-01-18T19:20:47.641Z,100782.31
2024-01-18T19:23:16.177Z,100787.44
2024-01-18T19:25:44.465Z,100792.53
2024-01-18T19:28:13.501Z,100782.28
2024-01-18T19:30:41.901Z,100792.50
2024-01-18T19:33:11.824Z,100788.19
2024-01-18T19:35:40.165Z,100788.19
2024-01-18T19:38:08.408Z,100799.25
2024-01-18T19:40:36.645Z,100803.53
2024-01-18T19:43:04.920Z,100811.19
2024-01-18T19:45:33.750Z,100808.63
2024-01-18T19:48:02.304Z,100813.72
2024-01-18T19:50:33.921Z,100822.25
2024-01-18T19:53:02.787Z,100822.25
2024-01-18T19:55:31.010Z,100827.34
2024-01-18T19:57:59.496Z,100830.78
2024-01-18T20:00:28.217Z,100841.00
2024-01-18T20:02:57.063Z,100842.75
2024-01-18T20:05:26.282Z,100850.44
2024-01-18T20:07:56.028Z,100862.41
2024-01-18T20:10:24.382Z,100870.94
2024-01-18T20:12:52.981Z,100865.88
2024-01-18T20:15:21.359Z,100870.19
2024-01-18T20:17:50.947Z,100879.63
2024-01-18T20:20:19.800Z,100874.50
2024-01-18T20:22:49.586Z,100877.09
2024-01-18T20:25:19.735Z,100865.16
2024-01-18T20:27:49.540Z,100871.13
2024-01-18T20:30:18.232Z,100886.47
2024-01-18T20:32:46.647Z,100897.56
2024-01-18T20:35:15.557Z,100903.56
2024-01-18T20:37:44.499Z,100932.59
2024-01-18T20:40:13.604Z,100920.66
2024-01-18T20:42:46.434Z,100934.31
2024-01-18T20:45:14.858Z,100924.09
2024-01-18T20:47:43.147Z,100936.88
2024-01-18T20:50:11.965Z,100940.28
2024-01-18T20:52:40.193Z,100946.28
2024-01-18T20:55:09.058Z,100956.53
2024-01-18T20:57:38.367Z,100953.97
2024-01-18T21:00:15.487Z,100959.97
2024-01-18T21:02:47.489Z,100968.47
2024-01-18T21:05:16.468Z,100971.88
2024-01-18T21:07:44.720Z,100966.75
2024-01-18T21:10:17.401Z,100976.13
2024-01-18T21:12:48.741Z,100968.44
2024-01-18T21:15:18.649Z,100966.72
2024-01-18T21:17:46.948Z,100970.97
2024-01-18T21:20:15.447Z,100966.72
2024-01-18T21:22:44.235Z,100963.28
2024-01-18T21:25:12.458Z,100968.41
2024-01-18T21:27:40.978Z,100970.88
2024-01-18T21:30:10.627Z,100970.00
2024-01-18T21:32:42.316Z,100982.78
2024-01-18T21:35:11.025Z,100971.72
2024-01-18T21:37:39.305Z,100980.22
2024-01-18T21:40:09.251Z,100981.91
2024-01-18T21:42:37.513Z,100971.69
2024-01-18T21:45:07.194Z,100975.06
2024-01-18T21:47:35.525Z,100978.47
2024-01-18T21:50:05.976Z,100983.56
2024-01-18T21:52:34.347Z,100973.31
2024-01-18T21:55:03.493Z,100976.69
2024-01-18T21:57:32.431Z,100974.13
2024-01-18T22:00:01.549Z,100982.59
2024-01-18T22:02:31.989Z,100975.78
2024-01-18T22:05:00.707Z,100980.00
2024-01-18T22:07:30.655Z,100983.44
2024-01-18T22:10:00.288Z,100994.47
2024-01-18T22:12:28.432Z,100991.91
2024-01-18T22:14:56.670Z,100997.81
2024-01-18T22:17:24.922Z,101002.91
2024-01-18T22:20:01.115Z,101002.06
2024-01-18T22:22:34.410Z,101000.38
2024-01-18T22:25:02.827Z,101002.91
2024-01-18T22:27:31.540Z,101003.75
2024-01-18T22:29:59.778Z,100998.63
2024-01-18T22:32:28.107Z,101006.25
2024-01-18T22:34:56.542Z,101009.63
2024-01-18T22:37:25.040Z,101007.03
2024-01-18T22:39:54.612Z,100999.28
2024-01-18T22:42:23.023Z,101004.38
2024-01-18T22:44:51.395Z,100997.53
2024-01-18T22:47:19.787Z,101001.75
2024-01-18T22:49:48.143Z,101007.66
2024-01-18T22:52:17.027Z,101012.78
2024-01-18T22:54:45.537Z,101005.94
2024-01-18T22:57:15.191Z,101011.91
2024-01-18T22:59:43.715Z,101020.38
2024-01-18T23:02:12.599Z,101017.84
2024-01-18T23:04:40.881Z,101020.31
2024-01-18T23:07:09.221Z,101029.72
2024-01-18T23:09:37.429Z,101032.28
2024-01-18T23:12:06.020Z,101043.41
2024-01-18T23:14:37.085Z,101048.47
2024-01-18T23:17:07.091Z,101057.00
2024-01-18T23:19:35.582Z,101064.72
2024-01-18T23:22:04.063Z,101070.72
2024-01-18T23:24:33.535Z,101066.53
2024-01-18T23:27:11.111Z,101067.41
2024-01-18T23:29:43.717Z,101069.09
2024-01-18T23:32:14.631Z,101065.75
2024-01-18T23:34:43.063Z,101061.53
2024-01-18T23:37:11.297Z,101064.97
2024-01-18T23:39:39.838Z,101064.16
2024-01-18T23:42:08.425Z,101062.50
2024-01-18T23:44:36.937Z,101054.81
2024-01-18T23:47:07.290Z,101075.22
2024-01-18T23:49:37.182Z,101074.31
2024-01-18T23:52:08.856Z,101080.28
2024-01-18T23:54:37.207Z,101086.19
2024-01-18T23:57:06.358Z,101089.63
2024-01-18T23:59:34.627Z,101078.56
